sensor_id;sensor_type;location;lat;lon;timestamp;temperature;humidity
1297;DHT22;641;48.492;9.184;2023-10-09T00:01:40;15.00;96.40
1297;DHT22;641;48.492;9.184;2023-10-09T00:06:36;12.30;95.10
1297;DHT22;641;48.492;9.184;2023-10-09T00:09:03;12.10;95.10
1297;DHT22;641;48.492;9.184;2023-10-09T00:11:48;13.30;96.40
1297;DHT22;641;48.492;9.184;2023-10-09T00:16:44;12.00;94.90
1297;DHT22;641;48.492;9.184;2023-10-09T00:19:14;12.00;95.30
1297;DHT22;641;48.492;9.184;2023-10-09T00:21:49;13.00;95.70
1297;DHT22;641;48.492;9.184;2023-10-09T00:24:16;12.20;95.90
1297;DHT22;641;48.492;9.184;2023-10-09T00:29:16;12.20;94.80
1297;DHT22;641;48.492;9.184;2023-10-09T00:31:51;12.30;95.40
1297;DHT22;641;48.492;9.184;2023-10-09T00:34:22;12.10;95.10
1297;DHT22;641;48.492;9.184;2023-10-09T00:36:48;12.00;94.90
1297;DHT22;641;48.492;9.184;2023-10-09T00:39:21;12.10;95.60
1297;DHT22;641;48.492;9.184;2023-10-09T00:42:02;12.00;95.50
1297;DHT22;641;48.492;9.184;2023-10-09T00:44:28;14.70;97.00
1297;DHT22;641;48.492;9.184;2023-10-09T00:47:05;12.00;96.00
1297;DHT22;641;48.492;9.184;2023-10-09T00:49:37;11.90;95.60
1297;DHT22;641;48.492;9.184;2023-10-09T00:52:08;11.90;95.70
1297;DHT22;641;48.492;9.184;2023-10-09T00:54:43;13.70;96.90
1297;DHT22;641;48.492;9.184;2023-10-09T00:59:40;11.60;96.00
1297;DHT22;641;48.492;9.184;2023-10-09T01:02:08;12.40;97.20
1297;DHT22;641;48.492;9.184;2023-10-09T01:04:35;11.50;97.00
1297;DHT22;641;48.492;9.184;2023-10-09T01:07:06;12.30;97.80
1297;DHT22;641;48.492;9.184;2023-10-09T01:09:35;11.50;97.70
1297;DHT22;641;48.492;9.184;2023-10-09T01:12:03;14.30;98.80
1297;DHT22;641;48.492;9.184;2023-10-09T01:14:30;11.50;96.60
1297;DHT22;641;48.492;9.184;2023-10-09T01:17:01;13.10;98.10
1297;DHT22;641;48.492;9.184;2023-10-09T01:19:27;12.80;97.50
1297;DHT22;641;48.492;9.184;2023-10-09T01:21:54;11.90;97.20
1297;DHT22;641;48.492;9.184;2023-10-09T01:24:19;11.60;97.00
1297;DHT22;641;48.492;9.184;2023-10-09T01:26:46;11.60;96.50
1297;DHT22;641;48.492;9.184;2023-10-09T01:29:22;11.60;96.20
1297;DHT22;641;48.492;9.184;2023-10-09T01:31:55;11.60;96.50
1297;DHT22;641;48.492;9.184;2023-10-09T01:34:22;12.30;96.90
1297;DHT22;641;48.492;9.184;2023-10-09T01:36:51;12.70;96.80
1297;DHT22;641;48.492;9.184;2023-10-09T01:41:49;11.40;96.00
1297;DHT22;641;48.492;9.184;2023-10-09T01:44:17;11.30;96.60
1297;DHT22;641;48.492;9.184;2023-10-09T01:51:47;11.20;96.90
1297;DHT22;641;48.492;9.184;2023-10-09T01:54:15;11.40;97.30
1297;DHT22;641;48.492;9.184;2023-10-09T01:56:59;12.10;97.90
1297;DHT22;641;48.492;9.184;2023-10-09T01:59:31;12.50;97.90
1297;DHT22;641;48.492;9.184;2023-10-09T02:01:56;11.20;97.30
1297;DHT22;641;48.492;9.184;2023-10-09T02:04:23;11.20;97.10
1297;DHT22;641;48.492;9.184;2023-10-09T02:06:49;11.30;97.10
1297;DHT22;641;48.492;9.184;2023-10-09T02:09:18;14.00;98.60
1297;DHT22;641;48.492;9.184;2023-10-09T02:11:51;13.70;98.60
1297;DHT22;641;48.492;9.184;2023-10-09T02:14:17;12.70;97.70
1297;DHT22;641;48.492;9.184;2023-10-09T02:16:47;11.40;96.90
1297;DHT22;641;48.492;9.184;2023-10-09T02:19:29;11.40;97.20
1297;DHT22;641;48.492;9.184;2023-10-09T02:22:03;11.40;97.30
1297;DHT22;641;48.492;9.184;2023-10-09T02:24:42;13.90;98.70
1297;DHT22;641;48.492;9.184;2023-10-09T02:27:19;13.80;98.50
1297;DHT22;641;48.492;9.184;2023-10-09T02:30:04;12.20;98.10
1297;DHT22;641;48.492;9.184;2023-10-09T02:35:09;11.60;97.60
1297;DHT22;641;48.492;9.184;2023-10-09T02:40:12;11.60;97.60
1297;DHT22;641;48.492;9.184;2023-10-09T02:42:41;11.50;97.80
1297;DHT22;641;48.492;9.184;2023-10-09T02:45:08;11.60;98.40
1297;DHT22;641;48.492;9.184;2023-10-09T02:50:05;11.60;98.00
1297;DHT22;641;48.492;9.184;2023-10-09T02:52:34;11.60;97.80
1297;DHT22;641;48.492;9.184;2023-10-09T02:55:06;12.40;98.30
1297;DHT22;641;48.492;9.184;2023-10-09T03:00:17;11.60;97.60
1297;DHT22;641;48.492;9.184;2023-10-09T03:02:55;11.70;97.90
1297;DHT22;641;48.492;9.184;2023-10-09T03:05:24;11.70;97.80
1297;DHT22;641;48.492;9.184;2023-10-09T03:07:53;12.70;98.30
1297;DHT22;641;48.492;9.184;2023-10-09T03:10:22;11.60;97.90
1297;DHT22;641;48.492;9.184;2023-10-09T03:12:47;11.80;98.50
1297;DHT22;641;48.492;9.184;2023-10-09T03:22:39;11.60;98.00
1297;DHT22;641;48.492;9.184;2023-10-09T03:25:06;13.50;99.50
1297;DHT22;641;48.492;9.184;2023-10-09T03:27:40;11.60;98.30
1297;DHT22;641;48.492;9.184;2023-10-09T03:30:12;11.60;98.60
1297;DHT22;641;48.492;9.184;2023-10-09T03:32:44;11.60;98.70
1297;DHT22;641;48.492;9.184;2023-10-09T03:35:16;11.60;98.80
1297;DHT22;641;48.492;9.184;2023-10-09T03:37:49;13.00;99.60
1297;DHT22;641;48.492;9.184;2023-10-09T03:40:15;11.60;98.90
1297;DHT22;641;48.492;9.184;2023-10-09T03:42:44;11.60;99.00
1297;DHT22;641;48.492;9.184;2023-10-09T03:45:10;11.60;99.10
1297;DHT22;641;48.492;9.184;2023-10-09T03:47:53;11.60;99.10
1297;DHT22;641;48.492;9.184;2023-10-09T03:50:27;13.60;99.90
1297;DHT22;641;48.492;9.184;2023-10-09T03:55:21;11.60;98.50
1297;DHT22;641;48.492;9.184;2023-10-09T03:57:53;13.20;99.90
1297;DHT22;641;48.492;9.184;2023-10-09T04:00:19;11.60;99.20
1297;DHT22;641;48.492;9.184;2023-10-09T04:02:55;11.50;99.10
1297;DHT22;641;48.492;9.184;2023-10-09T04:07:48;11.50;98.80
1297;DHT22;641;48.492;9.184;2023-10-09T04:13:10;11.50;98.70
1297;DHT22;641;48.492;9.184;2023-10-09T04:15:37;14.20;99.90
1297;DHT22;641;48.492;9.184;2023-10-09T04:18:03;11.70;99.20
1297;DHT22;641;48.492;9.184;2023-10-09T04:20:31;11.70;99.10
1297;DHT22;641;48.492;9.184;2023-10-09T04:22:59;13.90;99.80
1297;DHT22;641;48.492;9.184;2023-10-09T04:25:30;11.60;98.90
1297;DHT22;641;48.492;9.184;2023-10-09T04:30:39;11.70;99.20
1297;DHT22;641;48.492;9.184;2023-10-09T04:33:19;12.90;99.70
1297;DHT22;641;48.492;9.184;2023-10-09T04:36:07;11.50;99.40
1297;DHT22;641;48.492;9.184;2023-10-09T04:38:53;11.50;99.50
1297;DHT22;641;48.492;9.184;2023-10-09T04:44:07;11.30;99.40
1297;DHT22;641;48.492;9.184;2023-10-09T04:46:49;12.50;99.90
1297;DHT22;641;48.492;9.184;2023-10-09T04:49:35;11.20;99.90
1297;DHT22;641;48.492;9.184;2023-10-09T04:52:21;12.30;99.90
1297;DHT22;641;48.492;9.184;2023-10-09T04:54:56;11.30;99.90
1297;DHT22;641;48.492;9.184;2023-10-09T04:57:43;13.30;99.90
1297;DHT22;641;48.492;9.184;2023-10-09T05:00:15;11.30;99.90
1297;DHT22;641;48.492;9.184;2023-10-09T05:05:26;11.40;99.90
1297;DHT22;641;48.492;9.184;2023-10-09T05:10:50;11.40;99.90
1297;DHT22;641;48.492;9.184;2023-10-09T05:13:32;11.40;99.90
1297;DHT22;641;48.492;9.184;2023-10-09T05:16:14;11.50;99.90
1297;DHT22;641;48.492;9.184;2023-10-09T05:18:47;11.50;99.90
1297;DHT22;641;48.492;9.184;2023-10-09T05:21:35;11.50;99.90
1297;DHT22;641;48.492;9.184;2023-10-09T05:24:01;12.50;99.90
1297;DHT22;641;48.492;9.184;2023-10-09T05:26:46;11.50;99.90
1297;DHT22;641;48.492;9.184;2023-10-09T05:29:20;11.80;99.90
1297;DHT22;641;48.492;9.184;2023-10-09T05:32:01;13.60;99.90
1297;DHT22;641;48.492;9.184;2023-10-09T05:34:44;11.80;99.90
1297;DHT22;641;48.492;9.184;2023-10-09T05:37:32;11.70;99.90
1297;DHT22;641;48.492;9.184;2023-10-09T05:40:04;11.60;99.90
1297;DHT22;641;48.492;9.184;2023-10-09T05:42:34;11.50;99.90
1297;DHT22;641;48.492;9.184;2023-10-09T05:45:10;11.50;99.90
1297;DHT22;641;48.492;9.184;2023-10-09T05:47:54;11.50;99.90
1297;DHT22;641;48.492;9.184;2023-10-09T05:50:29;11.40;99.90
1297;DHT22;641;48.492;9.184;2023-10-09T05:53:03;11.50;99.90
1297;DHT22;641;48.492;9.184;2023-10-09T05:55:31;11.50;99.90
1297;DHT22;641;48.492;9.184;2023-10-09T05:58:16;11.60;99.90
1297;DHT22;641;48.492;9.184;2023-10-09T06:01:00;11.50;99.90
1297;DHT22;641;48.492;9.184;2023-10-09T06:03:44;11.50;99.90
1297;DHT22;641;48.492;9.184;2023-10-09T06:06:30;11.60;99.90
1297;DHT22;641;48.492;9.184;2023-10-09T06:09:05;11.70;99.90
1297;DHT22;641;48.492;9.184;2023-10-09T06:11:49;12.00;99.90
1297;DHT22;641;48.492;9.184;2023-10-09T06:14:21;12.10;99.90
1297;DHT22;641;48.492;9.184;2023-10-09T06:16:57;12.20;99.90
1297;DHT22;641;48.492;9.184;2023-10-09T06:19:26;12.20;99.90
1297;DHT22;641;48.492;9.184;2023-10-09T06:21:54;12.10;99.90
1297;DHT22;641;48.492;9.184;2023-10-09T06:24:30;12.10;99.90
1297;DHT22;641;48.492;9.184;2023-10-09T06:26:59;12.10;99.90
1297;DHT22;641;48.492;9.184;2023-10-09T06:29:28;12.10;99.90
1297;DHT22;641;48.492;9.184;2023-10-09T06:32:11;12.20;99.90
1297;DHT22;641;48.492;9.184;2023-10-09T06:34:58;12.30;99.90
1297;DHT22;641;48.492;9.184;2023-10-09T06:37:47;12.30;99.90
1297;DHT22;641;48.492;9.184;2023-10-09T06:40:48;12.50;99.90
1297;DHT22;641;48.492;9.184;2023-10-09T06:43:19;12.60;99.90
1297;DHT22;641;48.492;9.184;2023-10-09T06:48:22;12.80;99.90
1297;DHT22;641;48.492;9.184;2023-10-09T06:51:03;12.90;99.90
1297;DHT22;641;48.492;9.184;2023-10-09T06:53:33;13.00;99.90
1297;DHT22;641;48.492;9.184;2023-10-09T06:56:18;13.10;99.90
1297;DHT22;641;48.492;9.184;2023-10-09T06:59:05;13.20;99.90
1297;DHT22;641;48.492;9.184;2023-10-09T07:01:48;13.30;99.90
1297;DHT22;641;48.492;9.184;2023-10-09T07:04:36;13.40;99.90
1297;DHT22;641;48.492;9.184;2023-10-09T07:07:02;13.50;99.90
1297;DHT22;641;48.492;9.184;2023-10-09T07:09:33;13.50;99.70
1297;DHT22;641;48.492;9.184;2023-10-09T07:12:11;13.50;98.50
1297;DHT22;641;48.492;9.184;2023-10-09T07:14:46;13.50;98.70
1297;DHT22;641;48.492;9.184;2023-10-09T07:17:12;13.50;98.60
1297;DHT22;641;48.492;9.184;2023-10-09T07:19:56;13.50;98.20
1297;DHT22;641;48.492;9.184;2023-10-09T07:22:35;13.30;98.80
1297;DHT22;641;48.492;9.184;2023-10-09T07:25:05;13.40;98.60
1297;DHT22;641;48.492;9.184;2023-10-09T07:27:46;13.50;98.50
1297;DHT22;641;48.492;9.184;2023-10-09T07:30:15;13.60;98.30
1297;DHT22;641;48.492;9.184;2023-10-09T07:32:58;13.60;98.20
1297;DHT22;641;48.492;9.184;2023-10-09T07:35:46;13.70;97.20
1297;DHT22;641;48.492;9.184;2023-10-09T07:38:22;13.80;97.00
1297;DHT22;641;48.492;9.184;2023-10-09T07:40:50;13.90;96.80
1297;DHT22;641;48.492;9.184;2023-10-09T07:43:45;14.00;96.60
1297;DHT22;641;48.492;9.184;2023-10-09T07:46:16;14.20;95.70
1297;DHT22;641;48.492;9.184;2023-10-09T07:49:05;14.30;95.70
1297;DHT22;641;48.492;9.184;2023-10-09T07:51:40;14.60;96.10
1297;DHT22;641;48.492;9.184;2023-10-09T07:54:09;14.70;96.10
1297;DHT22;641;48.492;9.184;2023-10-09T07:56:41;14.90;96.20
1297;DHT22;641;48.492;9.184;2023-10-09T07:59:07;14.90;95.20
1297;DHT22;641;48.492;9.184;2023-10-09T08:01:48;15.00;94.70
1297;DHT22;641;48.492;9.184;2023-10-09T08:04:25;15.10;95.30
1297;DHT22;641;48.492;9.184;2023-10-09T08:07:09;15.20;95.50
1297;DHT22;641;48.492;9.184;2023-10-09T08:09:36;15.30;95.60
1297;DHT22;641;48.492;9.184;2023-10-09T08:12:46;15.40;94.60
1297;DHT22;641;48.492;9.184;2023-10-09T08:15:14;15.40;94.20
1297;DHT22;641;48.492;9.184;2023-10-09T08:17:44;15.40;94.60
1297;DHT22;641;48.492;9.184;2023-10-09T08:20:16;15.50;95.10
1297;DHT22;641;48.492;9.184;2023-10-09T08:22:42;15.60;94.90
1297;DHT22;641;48.492;9.184;2023-10-09T08:25:09;15.50;94.80
1297;DHT22;641;48.492;9.184;2023-10-09T08:27:58;15.60;95.30
1297;DHT22;641;48.492;9.184;2023-10-09T08:30:44;15.80;95.20
1297;DHT22;641;48.492;9.184;2023-10-09T08:33:29;15.90;95.30
1297;DHT22;641;48.492;9.184;2023-10-09T08:36:07;16.10;95.50
1297;DHT22;641;48.492;9.184;2023-10-09T08:38:33;16.20;94.60
1297;DHT22;641;48.492;9.184;2023-10-09T08:41:07;16.40;95.30
1297;DHT22;641;48.492;9.184;2023-10-09T08:43:36;16.50;94.60
1297;DHT22;641;48.492;9.184;2023-10-09T08:46:05;16.80;94.80
1297;DHT22;641;48.492;9.184;2023-10-09T08:48:30;17.00;93.90
1297;DHT22;641;48.492;9.184;2023-10-09T08:50:56;17.20;93.70
1297;DHT22;641;48.492;9.184;2023-10-09T08:53:23;17.40;93.00
1297;DHT22;641;48.492;9.184;2023-10-09T08:55:50;17.50;92.50
1297;DHT22;641;48.492;9.184;2023-10-09T08:58:17;17.80;90.60
1297;DHT22;641;48.492;9.184;2023-10-09T09:01:01;18.20;86.30
1297;DHT22;641;48.492;9.184;2023-10-09T09:03:40;19.00;79.10
1297;DHT22;641;48.492;9.184;2023-10-09T09:06:09;19.30;76.50
1297;DHT22;641;48.492;9.184;2023-10-09T09:08:36;19.50;74.70
1297;DHT22;641;48.492;9.184;2023-10-09T09:11:08;19.80;70.80
1297;DHT22;641;48.492;9.184;2023-10-09T09:16:31;20.10;66.80
1297;DHT22;641;48.492;9.184;2023-10-09T09:19:03;20.30;64.20
1297;DHT22;641;48.492;9.184;2023-10-09T09:21:43;20.40;64.80
1297;DHT22;641;48.492;9.184;2023-10-09T09:24:13;20.60;64.10
1297;DHT22;641;48.492;9.184;2023-10-09T09:26:48;20.60;63.00
1297;DHT22;641;48.492;9.184;2023-10-09T09:29:37;20.80;62.00
1297;DHT22;641;48.492;9.184;2023-10-09T09:32:12;20.90;59.00
1297;DHT22;641;48.492;9.184;2023-10-09T09:34:52;21.00;59.00
1297;DHT22;641;48.492;9.184;2023-10-09T09:37:21;21.10;59.30
1297;DHT22;641;48.492;9.184;2023-10-09T09:39:47;21.20;59.40
1297;DHT22;641;48.492;9.184;2023-10-09T09:42:17;21.30;58.50
1297;DHT22;641;48.492;9.184;2023-10-09T09:44:51;21.40;58.10
1297;DHT22;641;48.492;9.184;2023-10-09T09:47:16;21.50;58.80
1297;DHT22;641;48.492;9.184;2023-10-09T09:49:50;21.60;61.80
1297;DHT22;641;48.492;9.184;2023-10-09T09:52:33;21.60;60.10
1297;DHT22;641;48.492;9.184;2023-10-09T09:55:09;21.50;59.20
1297;DHT22;641;48.492;9.184;2023-10-09T09:57:48;21.40;62.20
1297;DHT22;641;48.492;9.184;2023-10-09T10:00:20;21.40;61.40
1297;DHT22;641;48.492;9.184;2023-10-09T10:03:01;21.50;63.20
1297;DHT22;641;48.492;9.184;2023-10-09T10:05:30;21.50;62.30
1297;DHT22;641;48.492;9.184;2023-10-09T10:07:58;21.50;62.60
1297;DHT22;641;48.492;9.184;2023-10-09T10:10:35;21.70;61.90
1297;DHT22;641;48.492;9.184;2023-10-09T10:13:03;21.70;61.10
1297;DHT22;641;48.492;9.184;2023-10-09T10:16:30;21.80;59.70
1297;DHT22;641;48.492;9.184;2023-10-09T10:18:56;21.90;58.80
1297;DHT22;641;48.492;9.184;2023-10-09T10:21:26;22.10;57.20
1297;DHT22;641;48.492;9.184;2023-10-09T10:24:02;22.20;55.60
1297;DHT22;641;48.492;9.184;2023-10-09T10:26:37;22.30;55.70
1297;DHT22;641;48.492;9.184;2023-10-09T10:32:01;22.50;53.60
1297;DHT22;641;48.492;9.184;2023-10-09T10:37:21;23.00;53.30
1297;DHT22;641;48.492;9.184;2023-10-09T10:39:54;23.10;51.90
1297;DHT22;641;48.492;9.184;2023-10-09T10:42:25;23.20;52.60
1297;DHT22;641;48.492;9.184;2023-10-09T10:45:01;23.20;53.20
1297;DHT22;641;48.492;9.184;2023-10-09T10:47:28;23.10;52.10
1297;DHT22;641;48.492;9.184;2023-10-09T10:50:03;23.10;51.90
1297;DHT22;641;48.492;9.184;2023-10-09T10:53:09;23.20;51.20
1297;DHT22;641;48.492;9.184;2023-10-09T10:55:38;23.40;51.00
1297;DHT22;641;48.492;9.184;2023-10-09T10:58:17;23.60;50.10
1297;DHT22;641;48.492;9.184;2023-10-09T11:00:54;23.70;50.90
1297;DHT22;641;48.492;9.184;2023-10-09T11:03:23;23.90;49.80
1297;DHT22;641;48.492;9.184;2023-10-09T11:06:01;23.90;49.10
1297;DHT22;641;48.492;9.184;2023-10-09T11:08:46;23.90;49.00
1297;DHT22;641;48.492;9.184;2023-10-09T11:11:22;23.80;48.80
1297;DHT22;641;48.492;9.184;2023-10-09T11:13:48;23.70;50.50
1297;DHT22;641;48.492;9.184;2023-10-09T11:16:20;23.70;49.40
1297;DHT22;641;48.492;9.184;2023-10-09T11:19:06;23.60;49.70
1297;DHT22;641;48.492;9.184;2023-10-09T11:21:49;23.40;49.40
1297;DHT22;641;48.492;9.184;2023-10-09T11:24:24;23.30;49.50
1297;DHT22;641;48.492;9.184;2023-10-09T11:26:50;23.20;48.80
1297;DHT22;641;48.492;9.184;2023-10-09T11:29:21;23.10;49.40
1297;DHT22;641;48.492;9.184;2023-10-09T11:32:07;23.10;49.00
1297;DHT22;641;48.492;9.184;2023-10-09T11:34:36;23.20;51.10
1297;DHT22;641;48.492;9.184;2023-10-09T11:37:12;23.20;49.70
1297;DHT22;641;48.492;9.184;2023-10-09T11:39:39;23.30;49.30
1297;DHT22;641;48.492;9.184;2023-10-09T11:42:22;23.20;49.30
1297;DHT22;641;48.492;9.184;2023-10-09T11:45:20;23.30;50.20
1297;DHT22;641;48.492;9.184;2023-10-09T11:47:50;23.30;49.50
1297;DHT22;641;48.492;9.184;2023-10-09T11:50:44;23.30;50.80
1297;DHT22;641;48.492;9.184;2023-10-09T11:53:43;23.30;50.30
1297;DHT22;641;48.492;9.184;2023-10-09T11:56:10;23.20;50.10
1297;DHT22;641;48.492;9.184;2023-10-09T11:58:40;23.20;50.70
1297;DHT22;641;48.492;9.184;2023-10-09T12:01:13;23.00;49.80
1297;DHT22;641;48.492;9.184;2023-10-09T12:04:00;23.00;50.60
1297;DHT22;641;48.492;9.184;2023-10-09T12:06:26;23.00;50.20
1297;DHT22;641;48.492;9.184;2023-10-09T12:08:57;22.90;51.60
1297;DHT22;641;48.492;9.184;2023-10-09T12:11:24;22.80;51.30
1297;DHT22;641;48.492;9.184;2023-10-09T12:13:54;22.70;51.40
1297;DHT22;641;48.492;9.184;2023-10-09T12:16:23;22.70;51.20
1297;DHT22;641;48.492;9.184;2023-10-09T12:18:56;22.60;51.10
1297;DHT22;641;48.492;9.184;2023-10-09T12:21:22;22.50;51.60
1297;DHT22;641;48.492;9.184;2023-10-09T12:23:49;22.40;51.80
1297;DHT22;641;48.492;9.184;2023-10-09T12:26:14;22.30;52.30
1297;DHT22;641;48.492;9.184;2023-10-09T12:28:43;22.20;52.10
1297;DHT22;641;48.492;9.184;2023-10-09T12:31:16;22.20;52.60
1297;DHT22;641;48.492;9.184;2023-10-09T12:33:45;22.20;52.40
1297;DHT22;641;48.492;9.184;2023-10-09T12:36:13;22.20;53.40
1297;DHT22;641;48.492;9.184;2023-10-09T12:38:46;22.20;53.50
1297;DHT22;641;48.492;9.184;2023-10-09T12:41:16;22.40;54.10
1297;DHT22;641;48.492;9.184;2023-10-09T12:43:52;22.40;53.40
1297;DHT22;641;48.492;9.184;2023-10-09T12:46:19;22.60;55.00
1297;DHT22;641;48.492;9.184;2023-10-09T12:48:48;22.60;54.10
1297;DHT22;641;48.492;9.184;2023-10-09T12:51:15;22.70;53.90
1297;DHT22;641;48.492;9.184;2023-10-09T12:53:45;22.80;54.20
1297;DHT22;641;48.492;9.184;2023-10-09T12:56:14;22.90;53.30
1297;DHT22;641;48.492;9.184;2023-10-09T12:58:40;23.00;52.90
1297;DHT22;641;48.492;9.184;2023-10-09T13:01:20;23.20;53.40
1297;DHT22;641;48.492;9.184;2023-10-09T13:03:51;23.20;53.30
1297;DHT22;641;48.492;9.184;2023-10-09T13:06:17;23.30;52.30
1297;DHT22;641;48.492;9.184;2023-10-09T13:08:49;23.30;51.60
1297;DHT22;641;48.492;9.184;2023-10-09T13:11:14;23.40;51.40
1297;DHT22;641;48.492;9.184;2023-10-09T13:13:44;23.50;51.20
1297;DHT22;641;48.492;9.184;2023-10-09T13:16:14;23.60;50.60
1297;DHT22;641;48.492;9.184;2023-10-09T13:18:55;23.60;50.10
1297;DHT22;641;48.492;9.184;2023-10-09T13:21:23;23.80;49.20
1297;DHT22;641;48.492;9.184;2023-10-09T13:23:50;23.80;48.80
1297;DHT22;641;48.492;9.184;2023-10-09T13:26:19;23.80;48.80
1297;DHT22;641;48.492;9.184;2023-10-09T13:28:56;23.80;49.10
1297;DHT22;641;48.492;9.184;2023-10-09T13:31:26;23.80;48.80
1297;DHT22;641;48.492;9.184;2023-10-09T13:33:55;23.70;48.80
1297;DHT22;641;48.492;9.184;2023-10-09T13:36:22;23.70;48.50
1297;DHT22;641;48.492;9.184;2023-10-09T13:39:05;23.70;48.20
1297;DHT22;641;48.492;9.184;2023-10-09T13:41:53;23.70;49.10
1297;DHT22;641;48.492;9.184;2023-10-09T13:44:31;23.70;49.50
1297;DHT22;641;48.492;9.184;2023-10-09T13:47:02;23.70;49.30
1297;DHT22;641;48.492;9.184;2023-10-09T13:49:36;23.80;48.80
1297;DHT22;641;48.492;9.184;2023-10-09T13:52:05;23.80;47.70
1297;DHT22;641;48.492;9.184;2023-10-09T13:54:33;23.80;48.70
1297;DHT22;641;48.492;9.184;2023-10-09T13:57:07;23.80;48.40
1297;DHT22;641;48.492;9.184;2023-10-09T13:59:44;23.70;47.30
1297;DHT22;641;48.492;9.184;2023-10-09T14:02:17;23.70;47.50
1297;DHT22;641;48.492;9.184;2023-10-09T14:04:43;23.70;47.90
1297;DHT22;641;48.492;9.184;2023-10-09T14:07:09;23.70;47.70
1297;DHT22;641;48.492;9.184;2023-10-09T14:09:35;23.70;47.40
1297;DHT22;641;48.492;9.184;2023-10-09T14:12:05;23.70;46.50
1297;DHT22;641;48.492;9.184;2023-10-09T14:14:52;23.60;46.60
1297;DHT22;641;48.492;9.184;2023-10-09T14:17:20;23.60;46.20
1297;DHT22;641;48.492;9.184;2023-10-09T14:19:57;23.60;47.10
1297;DHT22;641;48.492;9.184;2023-10-09T14:22:41;23.60;47.10
1297;DHT22;641;48.492;9.184;2023-10-09T14:25:07;23.60;46.80
1297;DHT22;641;48.492;9.184;2023-10-09T14:27:40;23.70;46.70
1297;DHT22;641;48.492;9.184;2023-10-09T14:30:15;23.70;46.70
1297;DHT22;641;48.492;9.184;2023-10-09T14:32:51;23.70;47.10
1297;DHT22;641;48.492;9.184;2023-10-09T14:35:21;23.70;46.50
1297;DHT22;641;48.492;9.184;2023-10-09T14:37:57;23.80;47.20
1297;DHT22;641;48.492;9.184;2023-10-09T14:40:32;23.70;46.60
1297;DHT22;641;48.492;9.184;2023-10-09T14:42:58;23.80;47.30
1297;DHT22;641;48.492;9.184;2023-10-09T14:45:24;23.80;47.10
1297;DHT22;641;48.492;9.184;2023-10-09T14:47:54;23.90;47.30
1297;DHT22;641;48.492;9.184;2023-10-09T14:50:21;23.90;47.80
1297;DHT22;641;48.492;9.184;2023-10-09T14:52:55;23.80;47.80
1297;DHT22;641;48.492;9.184;2023-10-09T14:55:21;23.80;47.70
1297;DHT22;641;48.492;9.184;2023-10-09T14:57:48;23.80;46.80
1297;DHT22;641;48.492;9.184;2023-10-09T15:00:15;23.80;47.20
1297;DHT22;641;48.492;9.184;2023-10-09T15:02:41;23.80;47.00
1297;DHT22;641;48.492;9.184;2023-10-09T15:05:07;23.80;47.00
1297;DHT22;641;48.492;9.184;2023-10-09T15:07:37;23.80;47.80
1297;DHT22;641;48.492;9.184;2023-10-09T15:10:05;23.80;47.70
1297;DHT22;641;48.492;9.184;2023-10-09T15:12:31;23.70;46.10
1297;DHT22;641;48.492;9.184;2023-10-09T15:14:56;23.70;46.60
1297;DHT22;641;48.492;9.184;2023-10-09T15:17:23;23.70;46.40
1297;DHT22;641;48.492;9.184;2023-10-09T15:19:50;23.70;46.60
1297;DHT22;641;48.492;9.184;2023-10-09T15:22:22;23.70;47.10
1297;DHT22;641;48.492;9.184;2023-10-09T15:24:47;23.70;46.20
1297;DHT22;641;48.492;9.184;2023-10-09T15:27:14;23.70;46.20
1297;DHT22;641;48.492;9.184;2023-10-09T15:29:40;23.70;46.50
1297;DHT22;641;48.492;9.184;2023-10-09T15:32:09;23.50;46.70
1297;DHT22;641;48.492;9.184;2023-10-09T15:34:40;23.50;46.70
1297;DHT22;641;48.492;9.184;2023-10-09T15:37:07;23.40;46.80
1297;DHT22;641;48.492;9.184;2023-10-09T15:39:34;23.30;46.80
1297;DHT22;641;48.492;9.184;2023-10-09T15:42:00;23.20;46.60
1297;DHT22;641;48.492;9.184;2023-10-09T15:44:25;23.30;46.70
1297;DHT22;641;48.492;9.184;2023-10-09T15:46:54;23.20;46.50
1297;DHT22;641;48.492;9.184;2023-10-09T15:49:26;23.10;47.80
1297;DHT22;641;48.492;9.184;2023-10-09T15:51:52;23.00;48.00
1297;DHT22;641;48.492;9.184;2023-10-09T15:54:18;22.90;48.30
1297;DHT22;641;48.492;9.184;2023-10-09T15:56:47;22.80;49.10
1297;DHT22;641;48.492;9.184;2023-10-09T15:59:13;22.60;48.50
1297;DHT22;641;48.492;9.184;2023-10-09T16:01:38;22.60;49.00
1297;DHT22;641;48.492;9.184;2023-10-09T16:04:08;22.50;48.60
1297;DHT22;641;48.492;9.184;2023-10-09T16:06:36;22.30;49.10
1297;DHT22;641;48.492;9.184;2023-10-09T16:09:05;22.20;49.30
1297;DHT22;641;48.492;9.184;2023-10-09T16:11:31;22.10;49.60
1297;DHT22;641;48.492;9.184;2023-10-09T16:13:59;22.00;50.00
1297;DHT22;641;48.492;9.184;2023-10-09T16:16:26;21.90;50.10
1297;DHT22;641;48.492;9.184;2023-10-09T16:18:51;21.90;50.20
1297;DHT22;641;48.492;9.184;2023-10-09T16:21:17;21.80;50.70
1297;DHT22;641;48.492;9.184;2023-10-09T16:23:43;21.70;51.00
1297;DHT22;641;48.492;9.184;2023-10-09T16:26:08;21.60;51.70
1297;DHT22;641;48.492;9.184;2023-10-09T16:28:35;21.50;51.60
1297;DHT22;641;48.492;9.184;2023-10-09T16:31:01;21.40;52.60
1297;DHT22;641;48.492;9.184;2023-10-09T16:33:27;21.20;53.40
1297;DHT22;641;48.492;9.184;2023-10-09T16:35:54;21.00;54.60
1297;DHT22;641;48.492;9.184;2023-10-09T16:38:21;20.80;55.20
1297;DHT22;641;48.492;9.184;2023-10-09T16:40:55;20.60;57.40
1297;DHT22;641;48.492;9.184;2023-10-09T16:43:23;20.40;56.80
1297;DHT22;641;48.492;9.184;2023-10-09T16:45:55;20.30;56.00
1297;DHT22;641;48.492;9.184;2023-10-09T16:48:25;20.20;56.60
1297;DHT22;641;48.492;9.184;2023-10-09T16:50:54;20.00;57.90
1297;DHT22;641;48.492;9.184;2023-10-09T16:53:19;20.00;57.80
1297;DHT22;641;48.492;9.184;2023-10-09T16:55:45;19.80;58.00
1297;DHT22;641;48.492;9.184;2023-10-09T16:58:10;19.80;58.40
1297;DHT22;641;48.492;9.184;2023-10-09T17:00:37;19.60;58.70
1297;DHT22;641;48.492;9.184;2023-10-09T17:03:04;19.60;58.40
1297;DHT22;641;48.492;9.184;2023-10-09T17:05:36;19.50;58.70
1297;DHT22;641;48.492;9.184;2023-10-09T17:08:16;19.30;58.80
1297;DHT22;641;48.492;9.184;2023-10-09T17:10:44;19.20;58.90
1297;DHT22;641;48.492;9.184;2023-10-09T17:13:11;19.20;59.90
1297;DHT22;641;48.492;9.184;2023-10-09T17:15:38;19.10;59.80
1297;DHT22;641;48.492;9.184;2023-10-09T17:18:04;18.90;60.30
1297;DHT22;641;48.492;9.184;2023-10-09T17:20:32;18.80;61.70
1297;DHT22;641;48.492;9.184;2023-10-09T17:22:57;18.70;61.20
1297;DHT22;641;48.492;9.184;2023-10-09T17:25:26;18.70;61.30
1297;DHT22;641;48.492;9.184;2023-10-09T17:27:52;18.60;62.50
1297;DHT22;641;48.492;9.184;2023-10-09T17:30:19;18.40;62.00
1297;DHT22;641;48.492;9.184;2023-10-09T17:32:46;18.30;63.30
1297;DHT22;641;48.492;9.184;2023-10-09T17:35:13;18.20;64.10
1297;DHT22;641;48.492;9.184;2023-10-09T17:37:39;18.20;64.80
1297;DHT22;641;48.492;9.184;2023-10-09T17:40:07;18.10;64.70
1297;DHT22;641;48.492;9.184;2023-10-09T17:42:36;18.10;65.00
1297;DHT22;641;48.492;9.184;2023-10-09T17:45:07;18.10;64.30
1297;DHT22;641;48.492;9.184;2023-10-09T17:47:33;18.00;65.10
1297;DHT22;641;48.492;9.184;2023-10-09T17:50:01;17.90;65.90
1297;DHT22;641;48.492;9.184;2023-10-09T17:52:27;17.90;65.70
1297;DHT22;641;48.492;9.184;2023-10-09T17:54:52;17.80;65.30
1297;DHT22;641;48.492;9.184;2023-10-09T17:57:18;17.80;65.20